Time;durP1;ratioP1;P1;durP2;ratioP2;P2;SDS_P1;SDS_P2;PMS_P1;PMS_P2;Temp;Humidity;BMP_temperature;BMP_pressure;BME280_temperature;BME280_humidity;BME280_pressure;Samples;Min_cycle;Max_cycle;Signal;HPM_P1;HPM_P2
2021/07/02 00:01:55;;;;;;;12.30;8.17;;;;;;;;;;5013263;28;20468;-96
2021/07/02 00:04:25;;;;;;;16.27;8.80;;;;;;;;;;5000083;28;20988;-94
2021/07/02 00:06:52;;;;;;;12.20;7.50;;;;;;;;;;5016373;28;20471;-94
2021/07/02 00:09:19;;;;;;;16.30;7.93;;;;;;;;;;5009821;28;20730;-94
2021/07/02 00:11:46;;;;;;;16.97;8.93;;;;;;;;;;5003183;28;20865;-96
2021/07/02 00:14:12;;;;;;;15.63;7.50;;;;;;;;;;5011606;28;20470;-95
2021/07/02 00:16:39;;;;;;;13.50;9.40;;;;;;;;;;5013496;28;20455;-95
2021/07/02 00:19:06;;;;;;;11.60;7.90;;;;;;;;;;5009328;28;20471;-95
2021/07/02 00:21:35;;;;;;;13.87;8.43;;;;;;;;;;5021793;28;20471;-96
2021/07/02 00:24:03;;;;;;;16.87;9.20;;;;;;;;;;5012938;28;20451;-96
2021/07/02 00:26:29;;;;;;;14.83;8.83;;;;;;;;;;5010861;28;20485;-94
2021/07/02 00:31:46;;;;;;;19.73;10.70;;;;;;;;;;5042629;23;20574;-95
2021/07/02 00:34:13;;;;;;;19.77;10.47;;;;;;;;;;5032118;28;20491;-94
2021/07/02 00:36:39;;;;;;;15.97;9.10;;;;;;;;;;5008721;28;20458;-94
2021/07/02 00:39:08;;;;;;;15.97;10.03;;;;;;;;;;5036934;28;20488;-96
2021/07/02 00:41:34;;;;;;;14.37;9.10;;;;;;;;;;5023440;28;21095;-95
2021/07/02 00:44:01;;;;;;;15.00;9.80;;;;;;;;;;5018592;28;20486;-95
2021/07/02 00:46:27;;;;;;;17.10;9.83;;;;;;;;;;5024150;28;20461;-95
2021/07/02 00:48:54;;;;;;;11.33;9.17;;;;;;;;;;5028828;28;20825;-94
2021/07/02 00:51:21;;;;;;;16.07;9.20;;;;;;;;;;5042854;28;20462;-93
2021/07/02 00:53:48;;;;;;;11.03;8.50;;;;;;;;;;5041502;28;20444;-93
2021/07/02 00:56:18;;;;;;;12.33;7.90;;;;;;;;;;5038905;28;20447;-95
2021/07/02 00:58:45;;;;;;;12.63;7.93;;;;;;;;;;5036282;28;20463;-94
2021/07/02 01:01:14;;;;;;;15.70;8.83;;;;;;;;;;5042775;28;20463;-94
2021/07/02 01:03:41;;;;;;;10.83;8.33;;;;;;;;;;5026561;28;20984;-95
2021/07/02 01:06:07;;;;;;;16.63;9.23;;;;;;;;;;5031826;28;20494;-94
2021/07/02 01:08:34;;;;;;;14.87;8.70;;;;;;;;;;5026768;28;20448;-93
2021/07/02 01:11:00;;;;;;;11.97;8.57;;;;;;;;;;5028469;28;20468;-94
2021/07/02 01:13:28;;;;;;;15.67;9.17;;;;;;;;;;5044970;28;20442;-94
2021/07/02 01:15:55;;;;;;;12.70;8.40;;;;;;;;;;5032862;28;21010;-94
2021/07/02 01:18:23;;;;;;;11.70;8.20;;;;;;;;;;5043813;28;20481;-96
2021/07/02 01:20:51;;;;;;;12.10;9.43;;;;;;;;;;5032734;28;20462;-93
2021/07/02 01:23:18;;;;;;;11.90;9.47;;;;;;;;;;5034505;28;20461;-95
2021/07/02 01:25:45;;;;;;;17.47;9.50;;;;;;;;;;5028536;28;20555;-93
2021/07/02 01:28:11;;;;;;;22.03;10.93;;;;;;;;;;5037713;28;20455;-96
2021/07/02 01:30:38;;;;;;;11.20;9.03;;;;;;;;;;5029568;28;20484;-94
2021/07/02 01:33:05;;;;;;;19.13;9.83;;;;;;;;;;5044285;28;20452;-94
2021/07/02 01:35:31;;;;;;;15.47;9.07;;;;;;;;;;5034004;28;20540;-93
2021/07/02 01:37:59;;;;;;;15.00;10.20;;;;;;;;;;5027578;28;20482;-93
2021/07/02 01:40:26;;;;;;;13.03;9.43;;;;;;;;;;5035010;28;20448;-94
2021/07/02 01:42:52;;;;;;;20.23;9.17;;;;;;;;;;5032601;28;20484;-94
2021/07/02 01:45:19;;;;;;;13.97;9.30;;;;;;;;;;5040591;28;20565;-93
2021/07/02 01:47:45;;;;;;;16.23;10.43;;;;;;;;;;5022525;28;21041;-93
2021/07/02 01:50:12;;;;;;;19.60;10.67;;;;;;;;;;5025295;28;20866;-93
2021/07/02 01:52:38;;;;;;;18.73;9.37;;;;;;;;;;5025582;28;20479;-92
2021/07/02 01:55:07;;;;;;;16.87;10.37;;;;;;;;;;5039731;28;20509;-94
2021/07/02 01:57:34;;;;;;;15.13;9.00;;;;;;;;;;5033467;28;20459;-93
2021/07/02 02:00:01;;;;;;;17.50;10.77;;;;;;;;;;5042407;28;20471;-93
2021/07/02 02:02:28;;;;;;;16.67;10.23;;;;;;;;;;5022844;28;20532;-94
2021/07/02 02:04:55;;;;;;;18.17;11.00;;;;;;;;;;5024253;28;20509;-94
2021/07/02 02:07:21;;;;;;;17.73;10.67;;;;;;;;;;5022790;28;20511;-93
2021/07/02 02:09:47;;;;;;;11.27;9.10;;;;;;;;;;5040722;28;20458;-95
2021/07/02 02:12:15;;;;;;;16.50;10.50;;;;;;;;;;5030672;28;20994;-95
2021/07/02 02:14:42;;;;;;;14.97;9.83;;;;;;;;;;5041848;28;20460;-95
2021/07/02 02:17:09;;;;;;;14.80;10.20;;;;;;;;;;5013039;28;20456;-93
2021/07/02 02:19:35;;;;;;;16.47;10.60;;;;;;;;;;5038202;28;20455;-92
2021/07/02 02:22:02;;;;;;;12.90;10.27;;;;;;;;;;5032654;28;20451;-95
2021/07/02 02:24:28;;;;;;;17.00;10.80;;;;;;;;;;5020728;28;20470;-94
2021/07/02 02:26:55;;;;;;;17.20;10.27;;;;;;;;;;5024196;28;20445;-94
2021/07/02 02:29:23;;;;;;;15.97;11.80;;;;;;;;;;5025684;28;20464;-94
2021/07/02 02:31:50;;;;;;;16.60;9.10;;;;;;;;;;5037045;28;20501;-93
2021/07/02 02:34:16;;;;;;;12.50;9.13;;;;;;;;;;5025362;28;20456;-93
2021/07/02 02:36:43;;;;;;;16.73;9.30;;;;;;;;;;5034201;28;20449;-94
2021/07/02 02:39:09;;;;;;;13.83;10.17;;;;;;;;;;5033454;28;20466;-94
2021/07/02 02:41:36;;;;;;;17.30;10.20;;;;;;;;;;5035687;28;20453;-94
2021/07/02 02:44:03;;;;;;;14.80;10.33;;;;;;;;;;5029818;28;20487;-94
2021/07/02 02:46:31;;;;;;;13.50;10.03;;;;;;;;;;5023627;28;20496;-94
2021/07/02 02:48:57;;;;;;;16.77;10.90;;;;;;;;;;5027400;28;20487;-95
2021/07/02 02:51:24;;;;;;;15.50;11.80;;;;;;;;;;5034936;28;20448;-93
2021/07/02 02:53:50;;;;;;;14.77;10.37;;;;;;;;;;5022150;28;20460;-93
2021/07/02 02:56:17;;;;;;;12.97;10.00;;;;;;;;;;5023313;28;20461;-93
2021/07/02 02:58:43;;;;;;;18.77;11.50;;;;;;;;;;5029803;28;20431;-96
2021/07/02 03:01:10;;;;;;;19.10;12.20;;;;;;;;;;5035704;28;20482;-93
2021/07/02 03:03:38;;;;;;;27.80;10.90;;;;;;;;;;5021403;28;21350;-93
2021/07/02 03:06:05;;;;;;;21.53;12.37;;;;;;;;;;5023456;28;20515;-96
2021/07/02 03:08:31;;;;;;;16.63;12.40;;;;;;;;;;5043851;28;20455;-95
2021/07/02 03:10:58;;;;;;;15.17;11.30;;;;;;;;;;5024911;28;20464;-94
2021/07/02 03:13:24;;;;;;;17.13;11.10;;;;;;;;;;5030429;28;20455;-94
2021/07/02 03:15:51;;;;;;;18.97;11.97;;;;;;;;;;5040851;28;20489;-96
2021/07/02 03:18:17;;;;;;;15.50;11.47;;;;;;;;;;5046270;28;20460;-94
2021/07/02 03:20:45;;;;;;;23.47;13.10;;;;;;;;;;5029332;28;20471;-93
2021/07/02 03:23:12;;;;;;;18.63;11.10;;;;;;;;;;5023371;28;20447;-95
2021/07/02 03:25:38;;;;;;;22.80;11.90;;;;;;;;;;5027232;28;20495;-93
2021/07/02 03:28:05;;;;;;;20.00;11.10;;;;;;;;;;5043914;28;20474;-94
2021/07/02 03:30:32;;;;;;;18.70;12.30;;;;;;;;;;5034315;28;20499;-94
2021/07/02 03:32:58;;;;;;;17.60;12.20;;;;;;;;;;5042490;28;20455;-96
2021/07/02 03:35:27;;;;;;;16.93;12.00;;;;;;;;;;5028383;28;20466;-94
2021/07/02 03:37:55;;;;;;;15.23;11.77;;;;;;;;;;5032985;28;20450;-95
2021/07/02 03:40:22;;;;;;;14.40;11.30;;;;;;;;;;5031832;28;20492;-93
2021/07/02 03:42:48;;;;;;;17.20;11.30;;;;;;;;;;5031689;28;20458;-93
2021/07/02 03:45:15;;;;;;;14.27;12.10;;;;;;;;;;5021562;28;20492;-92
2021/07/02 03:47:41;;;;;;;21.57;12.20;;;;;;;;;;5031033;28;20480;-93
2021/07/02 03:50:08;;;;;;;18.43;12.13;;;;;;;;;;5023017;28;20456;-91
2021/07/02 03:52:35;;;;;;;17.67;12.40;;;;;;;;;;5020128;28;20454;-93
2021/07/02 03:55:03;;;;;;;18.03;12.50;;;;;;;;;;5022907;28;20449;-93
2021/07/02 03:57:29;;;;;;;15.93;12.73;;;;;;;;;;5029280;28;20464;-92
2021/07/02 03:59:57;;;;;;;15.90;12.50;;;;;;;;;;5042660;28;20455;-94
2021/07/02 04:02:25;;;;;;;18.13;11.60;;;;;;;;;;5032338;28;20443;-96
2021/07/02 04:04:52;;;;;;;19.93;12.33;;;;;;;;;;5025359;28;20457;-96
2021/07/02 04:07:20;;;;;;;17.33;11.50;;;;;;;;;;5046818;22;20502;-96
2021/07/02 04:09:46;;;;;;;15.13;11.47;;;;;;;;;;5035840;28;20454;-93
2021/07/02 04:12:14;;;;;;;21.30;11.23;;;;;;;;;;5020134;28;20954;-92
2021/07/02 04:14:41;;;;;;;14.50;11.73;;;;;;;;;;5034567;28;21023;-93
2021/07/02 04:17:07;;;;;;;13.30;11.40;;;;;;;;;;5034025;28;20466;-91
2021/07/02 04:19:35;;;;;;;16.47;11.40;;;;;;;;;;5039870;28;20485;-92
2021/07/02 04:22:02;;;;;;;12.10;10.43;;;;;;;;;;5032668;28;20462;-92
2021/07/02 04:24:29;;;;;;;14.20;10.30;;;;;;;;;;5037504;28;20858;-94
2021/07/02 04:26:55;;;;;;;14.00;10.27;;;;;;;;;;5023118;28;20488;-92
2021/07/02 04:29:23;;;;;;;19.83;11.67;;;;;;;;;;5026878;28;20476;-92
2021/07/02 04:31:50;;;;;;;14.67;11.17;;;;;;;;;;5026649;28;20462;-92
2021/07/02 04:34:16;;;;;;;16.47;10.73;;;;;;;;;;5023046;28;20486;-92
2021/07/02 04:36:43;;;;;;;16.03;10.03;;;;;;;;;;5037702;28;20458;-94
2021/07/02 04:39:10;;;;;;;18.27;10.90;;;;;;;;;;5027737;28;20489;-95
2021/07/02 04:41:37;;;;;;;16.10;11.00;;;;;;;;;;5026757;28;20521;-94
2021/07/02 04:44:03;;;;;;;30.97;18.10;;;;;;;;;;5032373;28;20462;-93
2021/07/02 04:46:31;;;;;;;17.90;14.47;;;;;;;;;;5026292;28;20502;-93
2021/07/02 04:48:58;;;;;;;18.50;12.00;;;;;;;;;;5031803;28;20463;-94
2021/07/02 04:51:24;;;;;;;14.93;10.50;;;;;;;;;;5045585;28;20455;-94
2021/07/02 04:53:51;;;;;;;17.97;10.50;;;;;;;;;;5033879;28;20483;-94
2021/07/02 04:56:17;;;;;;;16.67;11.07;;;;;;;;;;5026452;28;20506;-93
2021/07/02 04:58:44;;;;;;;10.83;9.47;;;;;;;;;;5024932;28;20460;-96
2021/07/02 05:01:12;;;;;;;15.57;9.77;;;;;;;;;;5045925;28;20447;-94
2021/07/02 05:04:00;;;;;;;16.20;10.60;;;;;;;;;;5039354;28;20487;-93
2021/07/02 05:09:04;;;;;;;15.80;9.50;;;;;;;;;;5154189;22;20454;-96
2021/07/02 05:11:33;;;;;;;23.17;9.37;;;;;;;;;;5001600;28;20460;-96
2021/07/02 05:19:32;;;;;;;17.87;9.87;;;;;;;;;;5133149;22;20464;-95
2021/07/02 05:24:38;;;;;;;25.20;9.10;;;;;;;;;;5254200;22;20478;-96
2021/07/02 05:33:19;;;;;;;11.03;9.03;;;;;;;;;;5020718;28;20465;-96
2021/07/02 05:35:47;;;;;;;14.80;10.20;;;;;;;;;;5015287;28;20461;-96
2021/07/02 05:38:15;;;;;;;15.20;9.40;;;;;;;;;;5015354;28;20455;-96
2021/07/02 05:40:43;;;;;;;17.03;10.13;;;;;;;;;;5000609;28;20445;-96
2021/07/02 05:45:43;;;;;;;15.30;9.90;;;;;;;;;;5028377;28;20478;-96
2021/07/02 05:48:17;;;;;;;10.13;8.73;;;;;;;;;;5028457;23;20575;-95
2021/07/02 05:50:52;;;;;;;16.67;9.20;;;;;;;;;;5030736;28;20452;-96
2021/07/02 05:53:21;;;;;;;10.00;8.03;;;;;;;;;;5032199;28;20478;-96
2021/07/02 05:55:47;;;;;;;13.93;7.63;;;;;;;;;;5032772;28;20456;-94
2021/07/02 05:58:14;;;;;;;9.10;7.80;;;;;;;;;;5029909;28;20451;-93
2021/07/02 06:00:43;;;;;;;10.77;7.47;;;;;;;;;;5031500;28;20499;-96
2021/07/02 06:03:10;;;;;;;8.20;7.37;;;;;;;;;;5037719;23;20468;-96
2021/07/02 06:05:48;;;;;;;15.43;8.43;;;;;;;;;;5003681;28;20457;-95
2021/07/02 06:08:20;;;;;;;18.37;7.60;;;;;;;;;;4992778;28;20477;-94
2021/07/02 06:10:49;;;;;;;12.63;8.40;;;;;;;;;;5053313;23;20530;-95
2021/07/02 06:16:17;;;;;;;10.90;8.57;;;;;;;;;;5020783;28;20483;-96
2021/07/02 06:18:44;;;;;;;13.80;8.33;;;;;;;;;;5014176;28;20457;-94
2021/07/02 06:21:36;;;;;;;17.87;9.10;;;;;;;;;;5027731;23;20494;-96
2021/07/02 06:24:35;;;;;;;10.43;7.67;;;;;;;;;;5060399;22;20457;-96
2021/07/02 06:27:03;;;;;;;10.30;8.30;;;;;;;;;;5011142;28;20481;-95
2021/07/02 06:29:35;;;;;;;8.93;7.77;;;;;;;;;;5016800;28;20506;-96
2021/07/02 06:32:21;;;;;;;9.17;8.13;;;;;;;;;;5039043;23;20538;-96
2021/07/02 06:37:33;;;;;;;9.87;8.23;;;;;;;;;;5016611;23;20532;-96
2021/07/02 06:40:00;;;;;;;12.10;8.63;;;;;;;;;;5032111;28;20435;-95
2021/07/02 06:45:21;;;;;;;9.37;8.07;;;;;;;;;;5029132;28;20467;-96
2021/07/02 06:47:51;;;;;;;9.07;8.17;;;;;;;;;;5033252;28;20487;-96
2021/07/02 06:50:31;;;;;;;9.33;8.27;;;;;;;;;;5013402;28;20463;-96
2021/07/02 06:53:04;;;;;;;10.67;8.17;;;;;;;;;;5025523;28;20533;-95
2021/07/02 06:55:35;;;;;;;11.63;8.20;;;;;;;;;;5215591;23;20555;-95
2021/07/02 06:58:18;;;;;;;8.63;7.73;;;;;;;;;;5049519;28;20458;-96
2021/07/02 07:00:47;;;;;;;11.03;8.00;;;;;;;;;;5053326;22;20498;-96
2021/07/02 07:03:29;;;;;;;10.80;9.70;;;;;;;;;;5028956;28;20437;-96
2021/07/02 07:05:56;;;;;;;11.40;8.63;;;;;;;;;;5004294;28;20445;-96
2021/07/02 07:08:27;;;;;;;10.90;8.73;;;;;;;;;;5013053;28;20453;-95
2021/07/02 07:11:05;;;;;;;11.43;8.37;;;;;;;;;;5099812;22;20502;-96
2021/07/02 07:13:46;;;;;;;9.03;8.20;;;;;;;;;;5047170;28;20445;-95
2021/07/02 07:16:16;;;;;;;9.20;8.30;;;;;;;;;;5042513;28;20475;-96
2021/07/02 07:18:50;;;;;;;9.40;8.20;;;;;;;;;;5033564;28;20451;-96
2021/07/02 07:21:19;;;;;;;8.60;7.90;;;;;;;;;;5033816;28;20454;-96
2021/07/02 07:23:47;;;;;;;9.13;8.20;;;;;;;;;;5017125;28;20456;-96
2021/07/02 07:26:21;;;;;;;11.57;8.17;;;;;;;;;;5015386;28;20493;-95
2021/07/02 07:28:50;;;;;;;11.60;8.33;;;;;;;;;;5048718;28;20443;-96
2021/07/02 07:36:51;;;;;;;9.10;8.30;;;;;;;;;;5046409;28;20456;-96
2021/07/02 07:42:06;;;;;;;9.60;8.10;;;;;;;;;;5031312;28;20485;-93
2021/07/02 07:44:40;;;;;;;9.97;8.73;;;;;;;;;;5032762;28;20438;-94
2021/07/02 07:47:10;;;;;;;13.67;8.50;;;;;;;;;;5031288;28;20492;-95
2021/07/02 07:52:25;;;;;;;15.10;9.90;;;;;;;;;;5029001;28;20451;-95
2021/07/02 07:54:59;;;;;;;12.73;8.63;;;;;;;;;;5043873;28;20457;-96
2021/07/02 07:57:35;;;;;;;12.37;9.10;;;;;;;;;;5041093;28;20481;-95
2021/07/02 08:03:00;;;;;;;12.30;8.87;;;;;;;;;;5026000;28;20455;-95
2021/07/02 08:05:30;;;;;;;10.50;9.30;;;;;;;;;;5040976;28;20479;-96
2021/07/02 08:08:01;;;;;;;11.70;9.73;;;;;;;;;;5031758;28;20495;-96
2021/07/02 08:13:29;;;;;;;10.60;9.57;;;;;;;;;;5029736;23;20500;-96
2021/07/02 08:16:06;;;;;;;9.73;8.73;;;;;;;;;;5031367;28;20525;-96
2021/07/02 08:18:34;;;;;;;11.60;9.90;;;;;;;;;;5020326;23;20496;-96
2021/07/02 08:21:10;;;;;;;9.93;8.97;;;;;;;;;;5008782;28;20448;-96
2021/07/02 08:23:39;;;;;;;9.60;8.67;;;;;;;;;;5024924;23;20495;-96
2021/07/02 08:26:15;;;;;;;9.50;8.60;;;;;;;;;;5030533;28;20473;-96
2021/07/02 08:31:31;;;;;;;9.37;8.37;;;;;;;;;;5014391;28;20443;-96
2021/07/02 08:33:58;;;;;;;10.57;9.13;;;;;;;;;;5021263;28;20489;-96
2021/07/02 08:36:29;;;;;;;13.40;8.40;;;;;;;;;;5031211;28;20460;-94
2021/07/02 08:38:58;;;;;;;9.23;8.50;;;;;;;;;;5030761;28;20463;-96
2021/07/02 08:41:32;;;;;;;12.43;9.43;;;;;;;;;;5028824;28;20470;-95
2021/07/02 08:44:05;;;;;;;9.90;8.87;;;;;;;;;;5029311;28;20460;-94
2021/07/02 08:46:47;;;;;;;16.33;11.07;;;;;;;;;;5049162;22;20510;-96
2021/07/02 08:52:28;;;;;;;10.60;9.53;;;;;;;;;;5044527;28;20447;-96
2021/07/02 08:57:56;;;;;;;9.17;8.47;;;;;;;;;;5039529;22;21034;-95
2021/07/02 09:00:28;;;;;;;13.97;9.33;;;;;;;;;;5088847;22;20759;-95
2021/07/02 09:03:24;;;;;;;9.00;8.30;;;;;;;;;;5039426;22;20482;-95
2021/07/02 09:06:12;;;;;;;14.70;9.33;;;;;;;;;;5057714;23;20514;-96
2021/07/02 09:11:31;;;;;;;11.70;9.53;;;;;;;;;;5051353;22;20484;-96
2021/07/02 09:14:26;;;;;;;9.57;8.60;;;;;;;;;;5056786;22;24198;-96
2021/07/02 09:17:25;;;;;;;10.40;8.70;;;;;;;;;;5133226;22;20444;-96
2021/07/02 09:20:23;;;;;;;9.60;8.70;;;;;;;;;;4994014;28;20457;-95
2021/07/02 09:26:04;;;;;;;10.77;9.73;;;;;;;;;;4960413;29;20473;-95
2021/07/02 09:28:38;;;;;;;9.83;8.90;;;;;;;;;;4966868;28;20490;-95
2021/07/02 09:31:12;;;;;;;9.50;8.60;;;;;;;;;;4998209;28;20459;-96
2021/07/02 09:33:41;;;;;;;9.67;8.83;;;;;;;;;;5018319;28;20480;-96
2021/07/02 09:38:42;;;;;;;10.10;9.10;;;;;;;;;;5033405;28;20460;-96
2021/07/02 09:41:18;;;;;;;9.47;8.73;;;;;;;;;;5053485;22;20487;-96
2021/07/02 09:51:48;;;;;;;9.23;8.63;;;;;;;;;;5025585;28;20952;-96
2021/07/02 09:57:12;;;;;;;10.10;8.60;;;;;;;;;;5013491;28;20452;-96
2021/07/02 10:08:10;;;;;;;9.50;8.60;;;;;;;;;;5231067;23;20466;-94
2021/07/02 10:11:11;;;;;;;8.90;8.20;;;;;;;;;;5045807;28;20440;-96
2021/07/02 10:13:40;;;;;;;9.50;8.60;;;;;;;;;;5032027;28;20448;-96
2021/07/02 10:16:11;;;;;;;9.40;8.60;;;;;;;;;;5054345;28;20441;-96
2021/07/02 10:18:51;;;;;;;8.97;8.03;;;;;;;;;;5043506;28;20438;-95
2021/07/02 10:21:32;;;;;;;8.73;8.03;;;;;;;;;;5046977;28;20454;-96
2021/07/02 10:24:02;;;;;;;10.07;8.90;;;;;;;;;;5114612;22;20582;-96
2021/07/02 10:26:35;;;;;;;9.60;8.80;;;;;;;;;;5036782;28;20512;-96
2021/07/02 10:29:06;;;;;;;11.20;8.47;;;;;;;;;;5083584;22;20493;-96
2021/07/02 10:31:40;;;;;;;8.30;7.60;;;;;;;;;;5031803;28;20474;-95
2021/07/02 10:34:15;;;;;;;8.93;8.30;;;;;;;;;;5028123;28;20463;-96
2021/07/02 10:36:49;;;;;;;8.80;8.10;;;;;;;;;;5018126;28;20807;-95
2021/07/02 10:39:31;;;;;;;9.17;8.47;;;;;;;;;;5022817;28;20458;-96
2021/07/02 10:45:18;;;;;;;9.37;8.30;;;;;;;;;;5014830;28;20516;-96
2021/07/02 10:48:05;;;;;;;8.93;8.13;;;;;;;;;;5023706;28;20543;-96
2021/07/02 10:50:54;;;;;;;8.70;8.00;;;;;;;;;;5016428;28;20478;-96
2021/07/02 10:53:47;;;;;;;9.40;8.50;;;;;;;;;;5026528;28;20448;-96
2021/07/02 10:56:32;;;;;;;8.47;7.87;;;;;;;;;;5028668;22;20566;-96
2021/07/02 10:58:58;;;;;;;9.00;8.40;;;;;;;;;;5043301;28;20530;-96
2021/07/02 11:01:31;;;;;;;9.60;8.80;;;;;;;;;;5039891;28;20447;-96
2021/07/02 11:07:29;;;;;;;14.93;8.00;;;;;;;;;;5032900;28;20439;-96
2021/07/02 11:10:15;;;;;;;12.30;8.40;;;;;;;;;;5020370;28;20486;-96
2021/07/02 11:13:10;;;;;;;8.67;7.77;;;;;;;;;;5032744;28;20455;-95
2021/07/02 11:16:03;;;;;;;9.77;8.20;;;;;;;;;;5015563;28;20526;-96
2021/07/02 11:18:56;;;;;;;9.40;7.80;;;;;;;;;;5044836;28;20447;-96
2021/07/02 11:29:41;;;;;;;9.30;8.40;;;;;;;;;;4998050;28;20538;-96
2021/07/02 11:32:27;;;;;;;8.03;7.33;;;;;;;;;;5012769;28;20524;-96
2021/07/02 11:35:09;;;;;;;8.23;7.53;;;;;;;;;;5005736;28;20452;-95
2021/07/02 11:38:00;;;;;;;8.97;8.20;;;;;;;;;;5010241;28;20512;-96
2021/07/02 11:40:31;;;;;;;8.03;7.43;;;;;;;;;;5015042;28;20469;-96
2021/07/02 11:43:04;;;;;;;9.43;8.73;;;;;;;;;;5142038;23;20496;-96
2021/07/02 11:45:45;;;;;;;8.97;8.27;;;;;;;;;;5015005;28;20480;-93
2021/07/02 11:48:41;;;;;;;8.60;7.90;;;;;;;;;;5124346;22;20471;-95
2021/07/02 11:51:13;;;;;;;8.97;8.30;;;;;;;;;;5032584;28;20471;-96
2021/07/02 12:02:44;;;;;;;11.67;8.43;;;;;;;;;;5094064;22;20479;-95
2021/07/02 12:05:16;;;;;;;8.57;7.80;;;;;;;;;;5024469;28;20463;-95
2021/07/02 12:08:00;;;;;;;8.50;7.67;;;;;;;;;;5026449;28;20538;-95
2021/07/02 12:10:28;;;;;;;7.53;7.03;;;;;;;;;;5029501;28;20524;-95
2021/07/02 12:13:05;;;;;;;7.77;6.97;;;;;;;;;;5053959;23;20467;-96
2021/07/02 12:15:42;;;;;;;8.03;7.23;;;;;;;;;;5032355;28;20423;-96
2021/07/02 12:18:28;;;;;;;7.77;7.17;;;;;;;;;;5000288;28;20440;-95
2021/07/02 12:21:07;;;;;;;7.63;6.93;;;;;;;;;;5050041;28;20454;-96
2021/07/02 12:24:10;;;;;;;7.33;6.63;;;;;;;;;;5198407;22;20490;-95
2021/07/02 12:26:40;;;;;;;7.47;6.87;;;;;;;;;;5080051;23;20603;-96
2021/07/02 12:29:22;;;;;;;7.40;6.90;;;;;;;;;;5027411;23;20480;-96
2021/07/02 12:37:30;;;;;;;6.30;5.90;;;;;;;;;;5036156;23;20475;-96
2021/07/02 12:40:02;;;;;;;10.00;6.37;;;;;;;;;;5120607;23;20526;-96
2021/07/02 12:42:37;;;;;;;6.20;5.83;;;;;;;;;;5049363;28;20431;-96
2021/07/02 12:45:18;;;;;;;7.10;6.57;;;;;;;;;;5046385;28;20446;-96
2021/07/02 12:47:45;;;;;;;5.90;5.50;;;;;;;;;;5055268;28;20489;-96
2021/07/02 12:50:23;;;;;;;6.13;5.73;;;;;;;;;;5048669;28;20453;-95
2021/07/02 12:55:34;;;;;;;6.40;5.93;;;;;;;;;;5033094;28;20447;-96
2021/07/02 13:00:37;;;;;;;5.57;5.17;;;;;;;;;;774456;26;20741;-95
2021/07/02 13:03:14;;;;;;;7.50;5.30;;;;;;;;;;5109799;23;20520;-93
2021/07/02 13:05:46;;;;;;;6.10;5.60;;;;;;;;;;5024326;28;20448;-96
2021/07/02 13:08:13;;;;;;;5.33;4.93;;;;;;;;;;5031766;28;20510;-95
2021/07/02 13:10:43;;;;;;;5.10;4.60;;;;;;;;;;5016575;28;20468;-95
2021/07/02 13:13:40;;;;;;;5.30;5.00;;;;;;;;;;5016224;28;20475;-95
2021/07/02 13:18:41;;;;;;;5.33;4.83;;;;;;;;;;5247848;22;20540;-96
2021/07/02 13:21:08;;;;;;;5.20;4.73;;;;;;;;;;5023838;28;20436;-96
2021/07/02 13:23:38;;;;;;;4.73;4.43;;;;;;;;;;5019488;28;20464;-96
2021/07/02 13:26:10;;;;;;;5.43;4.90;;;;;;;;;;5051942;23;20487;-96
2021/07/02 13:31:30;;;;;;;7.10;4.33;;;;;;;;;;5051933;28;20538;-96
2021/07/02 13:34:01;;;;;;;5.17;4.57;;;;;;;;;;5059590;22;20501;-96
2021/07/02 13:36:35;;;;;;;4.90;4.50;;;;;;;;;;5045101;28;20459;-96
2021/07/02 13:39:07;;;;;;;6.33;4.33;;;;;;;;;;5050288;22;20482;-96
2021/07/02 13:41:35;;;;;;;5.17;4.67;;;;;;;;;;5223366;23;20473;-94
2021/07/02 13:44:12;;;;;;;4.87;4.47;;;;;;;;;;5043847;28;20477;-96
2021/07/02 13:46:41;;;;;;;4.47;4.17;;;;;;;;;;5024892;28;20454;-96
2021/07/02 13:52:32;;;;;;;7.63;4.83;;;;;;;;;;5018297;28;20458;-96
2021/07/02 13:57:46;;;;;;;8.40;5.13;;;;;;;;;;5355843;22;20490;-94
2021/07/02 14:00:14;;;;;;;4.60;4.20;;;;;;;;;;5062071;28;20454;-95
2021/07/02 14:02:44;;;;;;;4.80;4.40;;;;;;;;;;5066049;28;20460;-95
2021/07/02 14:05:18;;;;;;;6.03;4.70;;;;;;;;;;5072601;28;20446;-96
2021/07/02 14:07:44;;;;;;;4.50;4.20;;;;;;;;;;5065996;28;20466;-96
2021/07/02 14:10:16;;;;;;;6.67;5.27;;;;;;;;;;5064896;23;20483;-96
2021/07/02 14:12:53;;;;;;;5.20;4.70;;;;;;;;;;5025170;28;20440;-96
2021/07/02 14:15:20;;;;;;;5.60;5.10;;;;;;;;;;5049850;28;20442;-96
2021/07/02 14:17:46;;;;;;;5.20;4.70;;;;;;;;;;5030888;28;20479;-95
2021/07/02 14:20:16;;;;;;;5.43;5.13;;;;;;;;;;5043442;28;20474;-94
2021/07/02 14:22:44;;;;;;;5.53;4.97;;;;;;;;;;5049368;28;20477;-96
2021/07/02 14:25:13;;;;;;;6.40;5.80;;;;;;;;;;5050152;28;20455;-96
2021/07/02 14:27:45;;;;;;;5.73;4.80;;;;;;;;;;5052822;28;21018;-96
2021/07/02 14:30:26;;;;;;;5.07;4.50;;;;;;;;;;5049816;28;20446;-95
2021/07/02 14:32:54;;;;;;;5.10;4.70;;;;;;;;;;5050982;28;20889;-95
2021/07/02 14:35:29;;;;;;;5.07;4.77;;;;;;;;;;5040684;28;20443;-96
2021/07/02 14:38:23;;;;;;;4.33;4.03;;;;;;;;;;5049380;28;20447;-96
2021/07/02 14:40:58;;;;;;;5.10;4.70;;;;;;;;;;5036095;28;20498;-95
2021/07/02 14:43:24;;;;;;;5.60;4.83;;;;;;;;;;5048016;28;20455;-95
2021/07/02 14:46:10;;;;;;;5.13;4.73;;;;;;;;;;5055014;22;20494;-96
2021/07/02 14:48:36;;;;;;;5.40;4.90;;;;;;;;;;5051684;28;20518;-95
2021/07/02 14:51:03;;;;;;;4.80;4.40;;;;;;;;;;5046587;28;20455;-96
2021/07/02 14:53:31;;;;;;;5.37;4.87;;;;;;;;;;5052824;28;20443;-96
2021/07/02 14:56:23;;;;;;;4.70;4.40;;;;;;;;;;5044651;28;20450;-95
2021/07/02 14:59:04;;;;;;;5.30;4.93;;;;;;;;;;5051211;28;20500;-96
2021/07/02 15:01:36;;;;;;;4.90;4.53;;;;;;;;;;5045729;28;20526;-95
2021/07/02 15:06:29;;;;;;;7.20;4.07;;;;;;;;;;5263824;22;20491;-95
2021/07/02 15:08:56;;;;;;;4.20;4.00;;;;;;;;;;5032294;28;20514;-96
2021/07/02 15:11:24;;;;;;;5.80;4.20;;;;;;;;;;5010402;28;20512;-96
2021/07/02 15:17:09;;;;;;;4.80;4.40;;;;;;;;;;5015405;28;20543;-94
2021/07/02 15:19:42;;;;;;;5.13;4.57;;;;;;;;;;5054164;22;20472;-96
2021/07/02 15:22:13;;;;;;;4.20;3.90;;;;;;;;;;5019463;28;20524;-95
2021/07/02 15:25:03;;;;;;;5.17;4.13;;;;;;;;;;5030774;28;20428;-96
2021/07/02 15:27:32;;;;;;;3.70;3.50;;;;;;;;;;5072824;22;20491;-95
2021/07/02 15:30:28;;;;;;;4.60;4.20;;;;;;;;;;5048934;28;20498;-96
2021/07/02 15:32:56;;;;;;;4.13;3.73;;;;;;;;;;5031830;28;20476;-96
2021/07/02 15:35:23;;;;;;;4.13;3.83;;;;;;;;;;5039990;28;20460;-94
2021/07/02 15:37:50;;;;;;;3.57;3.37;;;;;;;;;;5040927;28;20446;-96
2021/07/02 15:40:19;;;;;;;4.00;3.70;;;;;;;;;;5031691;28;20486;-96
2021/07/02 15:42:48;;;;;;;3.80;3.37;;;;;;;;;;5023705;28;20539;-96
2021/07/02 15:45:27;;;;;;;4.20;3.80;;;;;;;;;;5041407;28;20509;-96
2021/07/02 15:48:00;;;;;;;3.23;3.03;;;;;;;;;;5031398;28;21795;-95
2021/07/02 15:50:29;;;;;;;3.37;3.17;;;;;;;;;;5052341;28;20489;-96
2021/07/02 15:53:00;;;;;;;3.47;3.27;;;;;;;;;;5037829;28;21012;-96
2021/07/02 15:55:33;;;;;;;3.33;3.13;;;;;;;;;;5026922;28;20451;-96
2021/07/02 16:00:48;;;;;;;3.70;3.40;;;;;;;;;;5039229;28;20522;-96
2021/07/02 16:05:56;;;;;;;3.77;3.20;;;;;;;;;;5011821;28;20464;-96
2021/07/02 16:08:34;;;;;;;3.10;2.93;;;;;;;;;;5007225;28;20460;-96
2021/07/02 16:11:02;;;;;;;3.67;3.37;;;;;;;;;;5030885;28;20458;-96
